createdAt,value
2022-09-17T00:00:39.060Z,0.00
2022-09-17T00:01:39.065Z,0.00
2022-09-17T00:02:39.104Z,0.00
2022-09-17T00:03:38.994Z,0.00
2022-09-17T00:04:39.003Z,0.00
2022-09-17T00:05:38.959Z,0.00
2022-09-17T00:06:38.959Z,0.00
2022-09-17T00:07:38.960Z,0.00
2022-09-17T00:08:38.952Z,0.00
2022-09-17T00:09:38.911Z,0.00
2022-09-17T00:10:38.915Z,0.00
2022-09-17T00:11:38.900Z,0.00
2022-09-17T00:12:38.891Z,0.00
2022-09-17T00:13:38.891Z,0.00
2022-09-17T00:14:38.879Z,0.00
2022-09-17T00:15:38.853Z,0.00
2022-09-17T00:16:38.890Z,0.00
2022-09-17T00:17:38.822Z,0.00
2022-09-17T00:18:38.831Z,0.00
2022-09-17T00:19:38.800Z,0.00
2022-09-17T00:20:38.799Z,0.00
2022-09-17T00:21:38.781Z,0.00
2022-09-17T00:22:38.771Z,0.00
2022-09-17T00:23:38.772Z,0.00
2022-09-17T00:24:38.787Z,0.00
2022-09-17T00:25:38.740Z,0.00
2022-09-17T00:26:38.731Z,0.00
2022-09-17T00:27:38.711Z,0.00
2022-09-17T00:28:38.728Z,0.00
2022-09-17T00:29:38.700Z,0.00
2022-09-17T00:30:38.693Z,0.00
2022-09-17T00:31:38.732Z,0.00
2022-09-17T00:32:38.660Z,0.00
2022-09-17T00:33:38.654Z,0.00
2022-09-17T00:34:38.640Z,0.00
2022-09-17T00:35:38.634Z,0.00
2022-09-17T00:36:38.620Z,0.00
2022-09-17T00:37:38.608Z,0.00
2022-09-17T00:38:38.614Z,0.00
2022-09-17T00:39:38.592Z,0.00
2022-09-17T00:40:38.614Z,0.00
2022-09-17T00:41:38.560Z,0.00
2022-09-17T00:42:38.552Z,0.00
2022-09-17T00:43:38.533Z,0.00
2022-09-17T00:44:38.544Z,0.00
2022-09-17T00:45:39.899Z,0.00
2022-09-17T00:46:38.594Z,0.00
2022-09-17T00:47:38.504Z,0.00
2022-09-17T00:48:38.504Z,0.00
2022-09-17T00:49:38.464Z,0.00
2022-09-17T00:50:38.479Z,0.00
2022-09-17T00:51:38.452Z,0.00
2022-09-17T00:52:38.440Z,0.00
2022-09-17T00:53:38.468Z,0.00
2022-09-17T00:54:38.418Z,0.00
2022-09-17T00:55:38.406Z,0.00
2022-09-17T00:56:38.384Z,0.00
2022-09-17T00:57:38.412Z,0.00
2022-09-17T00:58:41.232Z,0.00
2022-09-17T00:59:38.367Z,0.00
2022-09-17T01:00:38.394Z,0.00
2022-09-17T01:01:38.412Z,0.00
2022-09-17T01:02:38.312Z,0.00
2022-09-17T01:03:38.333Z,0.00
2022-09-17T01:04:38.293Z,0.00
2022-09-17T01:05:38.301Z,0.00
2022-09-17T01:06:38.284Z,0.00
2022-09-17T01:07:38.265Z,0.00
2022-09-17T01:08:38.252Z,0.00
2022-09-17T01:09:38.274Z,0.00
2022-09-17T01:10:38.232Z,0.00
2022-09-17T01:11:38.221Z,0.00
2022-09-17T01:12:38.193Z,0.00
2022-09-17T01:13:38.206Z,0.00
2022-09-17T01:14:38.198Z,0.00
2022-09-17T01:15:38.184Z,0.00
2022-09-17T01:16:38.156Z,0.00
2022-09-17T01:17:38.153Z,0.00
2022-09-17T01:18:38.153Z,0.00
2022-09-17T01:19:38.144Z,0.00
2022-09-17T01:20:38.157Z,0.00
2022-09-17T01:21:38.114Z,0.00
2022-09-17T01:22:38.093Z,0.00
2022-09-17T01:23:38.113Z,0.00
2022-09-17T01:24:38.065Z,0.00
2022-09-17T01:25:38.072Z,0.00
2022-09-17T01:26:38.056Z,0.00
2022-09-17T01:27:40.510Z,0.00
2022-09-17T01:28:38.026Z,0.00
2022-09-17T01:29:38.047Z,0.00
2022-09-17T01:30:37.997Z,0.00
2022-09-17T01:31:38.030Z,0.00
2022-09-17T01:32:37.995Z,0.00
2022-09-17T01:33:37.997Z,0.00
2022-09-17T01:34:37.966Z,0.00
2022-09-17T01:35:37.958Z,0.00
2022-09-17T01:36:37.937Z,0.00
2022-09-17T01:37:37.937Z,0.00
2022-09-17T01:38:38.025Z,0.00
2022-09-17T01:39:37.917Z,0.00
2022-09-17T01:40:37.886Z,0.00
2022-09-17T01:41:37.887Z,0.00
2022-09-17T01:42:37.865Z,0.00
2022-09-17T01:43:37.864Z,0.00
2022-09-17T01:44:37.857Z,0.00
2022-09-17T01:45:37.840Z,0.00
2022-09-17T01:46:37.896Z,0.00
2022-09-17T01:47:37.817Z,0.00
2022-09-17T01:48:37.799Z,0.00
2022-09-17T01:49:37.818Z,0.00
2022-09-17T01:50:37.777Z,0.00
2022-09-17T01:51:37.777Z,0.00
2022-09-17T01:52:37.745Z,0.00
2022-09-17T01:53:37.757Z,0.00
2022-09-17T01:54:41.723Z,0.00
2022-09-17T01:55:37.737Z,0.00
2022-09-17T01:56:37.705Z,0.00
2022-09-17T01:57:37.707Z,0.00
2022-09-17T01:58:37.698Z,0.00
2022-09-17T01:59:37.685Z,0.00
2022-09-17T02:00:37.690Z,0.00
2022-09-17T02:01:37.698Z,0.00
2022-09-17T02:02:37.645Z,0.00
2022-09-17T02:03:37.637Z,0.00
2022-09-17T02:04:37.641Z,0.00
2022-09-17T02:05:37.618Z,0.00
2022-09-17T02:06:37.599Z,0.00
2022-09-17T02:07:37.586Z,0.00
2022-09-17T02:08:37.580Z,0.00
2022-09-17T02:09:37.569Z,0.00
2022-09-17T02:10:37.558Z,0.00
2022-09-17T02:11:37.549Z,0.00
2022-09-17T02:12:37.530Z,0.00
2022-09-17T02:13:37.533Z,0.00
2022-09-17T02:14:37.517Z,0.00
2022-09-17T02:15:37.523Z,0.00
2022-09-17T02:16:37.485Z,0.00
2022-09-17T02:17:37.477Z,0.00
2022-09-17T02:18:37.465Z,0.00
2022-09-17T02:19:37.469Z,0.00
2022-09-17T02:20:37.450Z,0.00
2022-09-17T02:21:37.430Z,0.00
2022-09-17T02:22:37.410Z,0.00
2022-09-17T02:23:37.419Z,0.00
2022-09-17T02:24:37.391Z,0.00
2022-09-17T02:25:37.398Z,0.00
2022-09-17T02:26:37.370Z,0.00
2022-09-17T02:27:37.369Z,0.00
2022-09-17T02:28:37.350Z,0.00
2022-09-17T02:29:37.338Z,0.00
2022-09-17T02:30:37.338Z,0.00
2022-09-17T02:31:37.333Z,0.00
2022-09-17T02:32:37.298Z,0.00
2022-09-17T02:33:37.297Z,0.00
2022-09-17T02:34:37.281Z,0.00
2022-09-17T02:35:37.270Z,0.00
2022-09-17T02:36:37.745Z,0.00
2022-09-17T02:37:37.270Z,0.00
2022-09-17T02:38:37.238Z,0.00
2022-09-17T02:39:37.238Z,0.00
2022-09-17T02:40:37.295Z,0.00
2022-09-17T02:41:37.222Z,0.00
2022-09-17T02:42:37.180Z,0.00
2022-09-17T02:43:37.190Z,0.00
2022-09-17T02:44:37.170Z,0.00
2022-09-17T02:45:37.162Z,0.00
2022-09-17T02:46:37.262Z,0.00
2022-09-17T02:47:37.142Z,0.00
2022-09-17T02:48:37.122Z,0.00
2022-09-17T02:49:37.118Z,0.00
2022-09-17T02:50:37.103Z,0.00
2022-09-17T02:51:37.130Z,0.00
2022-09-17T02:52:37.078Z,0.00
2022-09-17T02:53:37.071Z,0.00
2022-09-17T02:54:37.066Z,0.00
2022-09-17T02:55:37.050Z,0.00
2022-09-17T02:56:37.183Z,0.00
2022-09-17T02:57:37.042Z,0.00
2022-09-17T02:58:37.003Z,0.00
2022-09-17T02:59:37.010Z,0.00
2022-09-17T03:00:37.066Z,0.00
2022-09-17T03:01:37.007Z,0.00
2022-09-17T03:02:36.963Z,0.00
2022-09-17T03:03:36.963Z,0.00
2022-09-17T03:04:36.950Z,0.00
2022-09-17T03:05:36.938Z,0.00
2022-09-17T03:06:36.930Z,0.00
2022-09-17T03:07:36.910Z,0.00
2022-09-17T03:08:36.890Z,0.00
2022-09-17T03:09:36.902Z,0.00
2022-09-17T03:10:36.903Z,0.00
2022-09-17T03:11:36.883Z,0.00
2022-09-17T03:12:36.851Z,0.00
2022-09-17T03:13:36.842Z,0.00
2022-09-17T03:14:36.830Z,0.00
2022-09-17T03:15:36.822Z,0.00
2022-09-17T03:16:36.850Z,0.00
2022-09-17T03:17:36.804Z,0.00
2022-09-17T03:18:36.809Z,0.00
2022-09-17T03:19:36.783Z,0.00
2022-09-17T03:20:36.753Z,0.00
2022-09-17T03:21:36.751Z,0.00
2022-09-17T03:22:36.734Z,0.00
2022-09-17T03:23:36.743Z,0.00
2022-09-17T03:24:36.723Z,0.00
2022-09-17T03:25:36.735Z,0.00
2022-09-17T03:26:36.711Z,0.00
2022-09-17T03:27:36.699Z,0.00
2022-09-17T03:28:36.671Z,0.00
2022-09-17T03:29:36.665Z,0.00
2022-09-17T03:30:36.647Z,0.00
2022-09-17T03:31:36.762Z,0.00
2022-09-17T03:32:36.634Z,0.00
2022-09-17T03:33:36.623Z,0.00
2022-09-17T03:34:36.603Z,0.00
2022-09-17T03:35:36.611Z,0.00
2022-09-17T03:36:36.924Z,0.00
2022-09-17T03:37:36.590Z,0.00
2022-09-17T03:38:36.572Z,0.00
2022-09-17T03:39:36.564Z,0.00
2022-09-17T03:40:36.581Z,0.00
2022-09-17T03:41:36.535Z,0.00
2022-09-17T03:42:36.524Z,0.00
2022-09-17T03:43:36.503Z,0.00
2022-09-17T03:44:36.491Z,0.00
2022-09-17T03:45:36.486Z,0.00
2022-09-17T03:46:36.526Z,0.00
2022-09-17T03:47:36.463Z,0.00
2022-09-17T03:48:36.431Z,0.00
2022-09-17T03:49:36.431Z,0.00
2022-09-17T03:50:36.415Z,0.00
2022-09-17T03:51:36.415Z,0.00
2022-09-17T03:52:36.411Z,0.00
2022-09-17T03:53:36.395Z,0.00
2022-09-17T03:54:36.384Z,0.00
2022-09-17T03:55:36.365Z,0.00
2022-09-17T03:56:36.531Z,0.00
2022-09-17T03:57:36.367Z,0.00
2022-09-17T03:58:36.328Z,0.00
2022-09-17T03:59:36.343Z,0.00
2022-09-17T04:00:36.304Z,0.00
2022-09-17T04:01:36.435Z,0.00
2022-09-17T04:02:36.405Z,0.00
2022-09-17T04:03:36.283Z,0.00
2022-09-17T04:04:36.273Z,0.00
2022-09-17T04:05:36.287Z,0.00
2022-09-17T04:06:36.235Z,0.00
2022-09-17T04:07:36.233Z,0.00
2022-09-17T04:08:36.224Z,0.00
2022-09-17T04:09:36.215Z,0.00
2022-09-17T04:10:36.216Z,0.00
2022-09-17T04:11:36.184Z,0.00
2022-09-17T04:12:36.191Z,0.00
2022-09-17T04:13:36.165Z,0.00
2022-09-17T04:14:36.156Z,0.00
2022-09-17T04:15:36.144Z,0.00
2022-09-17T04:16:36.664Z,0.00
2022-09-17T04:17:36.117Z,0.00
2022-09-17T04:18:36.584Z,0.00
2022-09-17T04:19:36.096Z,0.00
2022-09-17T04:20:36.077Z,0.00
2022-09-17T04:21:36.085Z,0.00
2022-09-17T04:22:36.044Z,0.00
2022-09-17T04:23:36.057Z,0.00
2022-09-17T04:24:36.032Z,0.00
2022-09-17T04:25:36.025Z,0.00
2022-09-17T04:26:36.028Z,0.00
2022-09-17T04:27:36.017Z,0.00
2022-09-17T04:28:35.983Z,0.00
2022-09-17T04:29:35.998Z,0.00
2022-09-17T04:30:35.964Z,0.00
2022-09-17T04:31:36.053Z,0.00
2022-09-17T04:32:35.949Z,0.00
2022-09-17T04:33:35.940Z,0.00
2022-09-17T04:34:35.924Z,0.00
2022-09-17T04:35:35.917Z,0.00
2022-09-17T04:36:35.925Z,0.00
2022-09-17T04:37:35.896Z,0.00
2022-09-17T04:38:35.884Z,0.00
2022-09-17T04:39:35.877Z,0.00
2022-09-17T04:40:35.941Z,4.00
2022-09-17T04:41:35.878Z,4.00
2022-09-17T04:42:35.845Z,0.00
2022-09-17T04:43:35.836Z,0.00
2022-09-17T04:44:35.816Z,4.00
2022-09-17T04:45:35.785Z,4.00
2022-09-17T04:46:35.857Z,4.00
2022-09-17T04:47:35.816Z,4.00
2022-09-17T04:48:35.776Z,4.00
2022-09-17T04:49:35.756Z,8.00
2022-09-17T04:50:35.756Z,8.00
2022-09-17T04:51:35.741Z,8.00
2022-09-17T04:52:35.749Z,8.00
2022-09-17T04:53:35.706Z,12.00
2022-09-17T04:54:35.732Z,12.00
2022-09-17T04:55:35.709Z,12.00
2022-09-17T04:56:35.715Z,16.00
2022-09-17T04:57:35.669Z,16.00
2022-09-17T04:58:35.672Z,20.00
2022-09-17T04:59:35.637Z,28.00
2022-09-17T05:00:35.748Z,28.00
2022-09-17T05:01:35.617Z,28.00
2022-09-17T05:02:35.618Z,36.00
2022-09-17T05:03:35.608Z,40.00
2022-09-17T05:04:35.591Z,44.00
2022-09-17T05:05:35.566Z,44.00
2022-09-17T05:06:35.577Z,52.00
2022-09-17T05:07:35.556Z,56.00
2022-09-17T05:08:35.570Z,60.00
2022-09-17T05:09:35.528Z,68.00
2022-09-17T05:10:35.530Z,72.00
2022-09-17T05:11:35.502Z,76.00
2022-09-17T05:12:35.511Z,84.00
2022-09-17T05:13:35.489Z,88.00
2022-09-17T05:14:35.469Z,96.00
2022-09-17T05:15:35.457Z,104.00
2022-09-17T05:16:35.733Z,112.00
2022-09-17T05:17:35.437Z,120.00
2022-09-17T05:18:35.448Z,128.00
2022-09-17T05:19:35.409Z,140.00
2022-09-17T05:20:35.436Z,148.00
2022-09-17T05:21:35.389Z,156.00
2022-09-17T05:22:35.393Z,172.00
2022-09-17T05:23:35.377Z,180.00
2022-09-17T05:24:35.378Z,188.00
2022-09-17T05:25:35.366Z,200.00
2022-09-17T05:26:35.349Z,216.00
2022-09-17T05:27:35.357Z,228.00
2022-09-17T05:28:35.331Z,240.00
2022-09-17T05:29:35.323Z,252.00
2022-09-17T05:30:35.352Z,268.00
2022-09-17T05:31:35.379Z,280.00
2022-09-17T05:32:35.278Z,292.00
2022-09-17T05:33:35.249Z,304.00
2022-09-17T05:34:35.277Z,316.00
2022-09-17T05:35:35.229Z,324.00
2022-09-17T05:36:35.257Z,332.00
2022-09-17T05:37:35.209Z,344.00
2022-09-17T05:38:35.209Z,352.00
2022-09-17T05:39:35.183Z,360.00
2022-09-17T05:40:35.309Z,372.00
2022-09-17T05:41:35.177Z,380.00
2022-09-17T05:42:35.163Z,392.00
2022-09-17T05:43:35.130Z,400.00
2022-09-17T05:44:35.142Z,416.00
2022-09-17T05:45:35.144Z,428.00
2022-09-17T05:46:35.188Z,440.00
2022-09-17T05:47:35.097Z,448.00
2022-09-17T05:48:35.098Z,460.00
2022-09-17T05:49:35.077Z,472.00
2022-09-17T05:50:35.089Z,484.00
2022-09-17T05:51:35.098Z,496.00
2022-09-17T05:52:35.062Z,508.00
2022-09-17T05:53:35.034Z,520.00
2022-09-17T05:54:35.030Z,536.00
2022-09-17T05:55:35.011Z,552.00
2022-09-17T05:56:35.018Z,572.00
2022-09-17T05:57:34.990Z,596.00
2022-09-17T05:58:34.991Z,616.00
2022-09-17T05:59:34.958Z,636.00
2022-09-17T06:00:34.970Z,648.00
2022-09-17T06:01:34.997Z,660.00
2022-09-17T06:02:34.990Z,668.00
2022-09-17T06:03:34.909Z,668.00
2022-09-17T06:04:35.291Z,668.00
2022-09-17T06:05:34.899Z,656.00
2022-09-17T06:06:34.897Z,648.00
2022-09-17T06:07:34.878Z,648.00
2022-09-17T06:08:34.870Z,644.00
2022-09-17T06:09:34.838Z,644.00
2022-09-17T06:10:34.850Z,644.00
2022-09-17T06:11:34.841Z,644.00
2022-09-17T06:12:34.822Z,632.00
2022-09-17T06:13:34.810Z,620.00
2022-09-17T06:14:34.802Z,620.00
2022-09-17T06:15:34.796Z,632.00
2022-09-17T06:16:34.857Z,640.00
2022-09-17T06:17:34.750Z,644.00
2022-09-17T06:18:34.762Z,648.00
2022-09-17T06:19:34.731Z,640.00
2022-09-17T06:20:34.730Z,624.00
2022-09-17T06:21:34.722Z,608.00
2022-09-17T06:22:34.723Z,604.00
2022-09-17T06:23:34.683Z,604.00
2022-09-17T06:24:34.691Z,600.00
2022-09-17T06:25:34.762Z,596.00
2022-09-17T06:26:34.682Z,600.00
2022-09-17T06:27:34.650Z,596.00
2022-09-17T06:28:39.100Z,592.00
2022-09-17T06:29:35.622Z,592.00
2022-09-17T06:30:34.631Z,592.00
2022-09-17T06:31:34.664Z,596.00
2022-09-17T06:32:34.615Z,600.00
2022-09-17T06:33:34.571Z,596.00
2022-09-17T06:34:34.571Z,592.00
2022-09-17T06:35:34.542Z,588.00
2022-09-17T06:36:34.562Z,584.00
2022-09-17T06:37:34.530Z,572.00
2022-09-17T06:38:34.530Z,568.00
2022-09-17T06:39:34.522Z,552.00
2022-09-17T06:40:34.547Z,548.00
2022-09-17T06:41:34.503Z,536.00
2022-09-17T06:42:34.479Z,532.00
2022-09-17T06:43:34.471Z,532.00
2022-09-17T06:44:34.462Z,532.00
2022-09-17T06:45:34.451Z,532.00
2022-09-17T06:46:34.459Z,532.00
2022-09-17T06:47:34.412Z,536.00
2022-09-17T06:48:34.411Z,548.00
2022-09-17T06:49:34.391Z,560.00
2022-09-17T06:50:35.228Z,564.00
2022-09-17T06:51:34.375Z,576.00
2022-09-17T06:52:34.382Z,588.00
2022-09-17T06:53:34.351Z,604.00
2022-09-17T06:54:34.343Z,616.00
2022-09-17T06:55:34.327Z,632.00
2022-09-17T06:56:34.326Z,652.00
2022-09-17T06:57:34.322Z,684.00
2022-09-17T06:58:34.320Z,700.00
2022-09-17T06:59:34.292Z,700.00
2022-09-17T07:00:34.286Z,704.00
2022-09-17T07:01:34.322Z,696.00
2022-09-17T07:02:34.275Z,712.00
2022-09-17T07:03:34.252Z,732.00
2022-09-17T07:04:34.235Z,756.00
2022-09-17T07:05:34.529Z,776.00
2022-09-17T07:06:34.223Z,780.00
2022-09-17T07:07:34.198Z,784.00
2022-09-17T07:08:34.198Z,784.00
2022-09-17T07:09:34.171Z,792.00
2022-09-17T07:10:34.163Z,796.00
2022-09-17T07:11:34.155Z,796.00
2022-09-17T07:12:34.145Z,800.00
2022-09-17T07:13:34.136Z,804.00
2022-09-17T07:14:34.130Z,812.00
2022-09-17T07:15:34.103Z,816.00
2022-09-17T07:16:34.163Z,824.00
2022-09-17T07:17:34.083Z,836.00
2022-09-17T07:18:34.123Z,848.00
2022-09-17T07:19:34.051Z,860.00
2022-09-17T07:20:34.049Z,872.00
2022-09-17T07:21:34.044Z,884.00
2022-09-17T07:22:34.024Z,888.00
2022-09-17T07:23:34.030Z,880.00
2022-09-17T07:24:34.003Z,848.00
2022-09-17T07:25:34.043Z,868.00
2022-09-17T07:26:33.979Z,864.00
2022-09-17T07:27:33.963Z,864.00
2022-09-17T07:28:33.963Z,864.00
2022-09-17T07:29:33.939Z,856.00
2022-09-17T07:30:33.935Z,848.00
2022-09-17T07:31:33.945Z,860.00
2022-09-17T07:32:33.917Z,864.00
2022-09-17T07:33:33.904Z,868.00
2022-09-17T07:34:33.897Z,872.00
2022-09-17T07:35:33.876Z,872.00
2022-09-17T07:36:33.866Z,864.00
2022-09-17T07:37:33.847Z,856.00
2022-09-17T07:38:33.859Z,856.00
2022-09-17T07:39:33.825Z,852.00
2022-09-17T07:40:33.866Z,852.00
2022-09-17T07:41:33.816Z,856.00
2022-09-17T07:42:33.787Z,860.00
2022-09-17T07:43:33.856Z,780.00
2022-09-17T07:44:33.764Z,776.00
2022-09-17T07:45:33.973Z,848.00
2022-09-17T07:46:33.789Z,876.00
2022-09-17T07:47:33.736Z,880.00
2022-09-17T07:48:33.744Z,884.00
2022-09-17T07:49:33.732Z,892.00
2022-09-17T07:50:33.704Z,896.00
2022-09-17T07:51:33.702Z,908.00
2022-09-17T07:52:33.686Z,908.00
2022-09-17T07:53:33.696Z,904.00
2022-09-17T07:54:33.657Z,912.00
2022-09-17T07:55:33.654Z,916.00
2022-09-17T07:56:33.644Z,928.00
2022-09-17T07:57:33.624Z,932.00
2022-09-17T07:58:33.668Z,940.00
2022-09-17T07:59:33.616Z,948.00
2022-09-17T08:00:33.598Z,944.00
2022-09-17T08:01:33.660Z,956.00
2022-09-17T08:02:33.657Z,956.00
2022-09-17T08:03:33.565Z,956.00
2022-09-17T08:04:33.557Z,956.00
2022-09-17T08:05:33.545Z,964.00
2022-09-17T08:06:33.517Z,968.00
2022-09-17T08:07:33.517Z,952.00
2022-09-17T08:08:33.497Z,964.00
2022-09-17T08:09:33.596Z,968.00
2022-09-17T08:10:33.477Z,972.00
2022-09-17T08:12:34.449Z,996.00
2022-09-17T08:13:33.456Z,1012.00
2022-09-17T08:14:33.430Z,1012.00
2022-09-17T08:15:33.438Z,1024.00
2022-09-17T08:16:33.458Z,1036.00
2022-09-17T08:17:33.417Z,1044.00
2022-09-17T08:18:33.396Z,1056.00
2022-09-17T08:19:33.397Z,1060.00
2022-09-17T08:20:33.360Z,1072.00
2022-09-17T08:21:33.364Z,1084.00
2022-09-17T08:22:33.336Z,1088.00
2022-09-17T08:23:33.349Z,1104.00
2022-09-17T08:24:33.330Z,1104.00
2022-09-17T08:25:33.317Z,1112.00
2022-09-17T08:26:33.297Z,1124.00
2022-09-17T08:27:33.297Z,1148.00
2022-09-17T08:28:33.269Z,1156.00
2022-09-17T08:29:35.411Z,1172.00
2022-09-17T08:30:33.249Z,1188.00
2022-09-17T08:31:33.413Z,1236.00
2022-09-17T08:32:33.229Z,1196.00
2022-09-17T08:33:33.222Z,1224.00
2022-09-17T08:34:33.469Z,1228.00
2022-09-17T08:35:33.222Z,1248.00
2022-09-17T08:36:33.189Z,1260.00
2022-09-17T08:37:33.189Z,1360.00
2022-09-17T08:38:37.694Z,1304.00
2022-09-17T08:39:34.158Z,864.00
2022-09-17T08:40:33.181Z,936.00
2022-09-17T08:41:33.138Z,1004.00
2022-09-17T08:42:33.129Z,1272.00
2022-09-17T08:43:33.109Z,1284.00
2022-09-17T08:44:33.097Z,1304.00
2022-09-17T08:45:33.117Z,1296.00
2022-09-17T08:46:33.155Z,1300.00
2022-09-17T08:47:33.069Z,1296.00
2022-09-17T08:48:33.049Z,1104.00
2022-09-17T08:49:33.037Z,1300.00
2022-09-17T08:50:33.029Z,1324.00
2022-09-17T08:51:33.041Z,1332.00
2022-09-17T08:52:33.008Z,1336.00
2022-09-17T08:53:33.002Z,1376.00
2022-09-17T08:54:32.983Z,1408.00
2022-09-17T08:55:32.989Z,1368.00
2022-09-17T08:56:32.961Z,1404.00
2022-09-17T08:57:32.949Z,1448.00
2022-09-17T08:58:32.929Z,1540.00
2022-09-17T08:59:32.929Z,1616.00
2022-09-17T09:00:32.929Z,1700.00
2022-09-17T09:01:32.960Z,1732.00
2022-09-17T09:02:32.966Z,1612.00
2022-09-17T09:03:32.881Z,1940.00
2022-09-17T09:04:32.869Z,2004.00
2022-09-17T09:05:32.885Z,1988.00
2022-09-17T09:06:32.870Z,1996.00
2022-09-17T09:07:32.841Z,2036.00
2022-09-17T09:08:32.821Z,2032.00
2022-09-17T09:09:32.822Z,1556.00
2022-09-17T09:10:32.827Z,1448.00
2022-09-17T09:11:32.801Z,1356.00
2022-09-17T09:12:32.783Z,2096.00
2022-09-17T09:13:32.792Z,1440.00
2022-09-17T09:14:33.220Z,1928.00
2022-09-17T09:15:32.753Z,1468.00
2022-09-17T09:16:32.795Z,2020.00
2022-09-17T09:17:32.733Z,2144.00
2022-09-17T09:18:32.716Z,2128.00
2022-09-17T09:19:32.714Z,2140.00
2022-09-17T09:20:32.792Z,2260.00
2022-09-17T09:21:32.684Z,1612.00
2022-09-17T09:22:32.672Z,1480.00
2022-09-17T09:23:32.673Z,2240.00
2022-09-17T09:24:32.652Z,1516.00
2022-09-17T09:25:32.632Z,2248.00
2022-09-17T09:26:32.632Z,1400.00
2022-09-17T09:27:32.612Z,1252.00
2022-09-17T09:28:32.612Z,1792.00
2022-09-17T09:29:32.611Z,1844.00
2022-09-17T09:30:32.581Z,1800.00
2022-09-17T09:31:32.621Z,1836.00
2022-09-17T09:32:32.544Z,1880.00
2022-09-17T09:33:32.538Z,1980.00
2022-09-17T09:34:32.544Z,1996.00
2022-09-17T09:35:32.527Z,2012.00
2022-09-17T09:36:32.504Z,2148.00
2022-09-17T09:37:32.593Z,2276.00
2022-09-17T09:38:32.472Z,1612.00
2022-09-17T09:39:39.186Z,2524.00
2022-09-17T09:40:33.547Z,2596.00
2022-09-17T09:41:32.473Z,2592.00
2022-09-17T09:42:32.447Z,2484.00
2022-09-17T09:43:46.658Z,2568.00
2022-09-17T09:45:43.528Z,2976.00
2022-09-17T09:46:43.575Z,3020.00
2022-09-17T09:47:43.499Z,2052.00
2022-09-17T09:48:43.492Z,1868.00
2022-09-17T09:49:43.460Z,1688.00
2022-09-17T09:51:05.307Z,2596.00
2022-09-17T09:51:44.822Z,1504.00
2022-09-17T09:52:43.448Z,1512.00
2022-09-17T09:53:43.420Z,2612.00
2022-09-17T09:54:43.413Z,1816.00
2022-09-17T09:55:43.400Z,1972.00
2022-09-17T09:56:43.400Z,3076.00
2022-09-17T09:57:43.374Z,2880.00
2022-09-17T09:58:43.359Z,1948.00
2022-09-17T09:59:43.388Z,1980.00
2022-09-17T10:00:43.333Z,2020.00
2022-09-17T10:01:43.402Z,1904.00
2022-09-17T10:02:43.439Z,1828.00
2022-09-17T10:03:43.313Z,1916.00
2022-09-17T10:04:43.304Z,1888.00
2022-09-17T10:05:43.293Z,2760.00
2022-09-17T10:06:43.279Z,1488.00
2022-09-17T10:07:43.293Z,1184.00
2022-09-17T10:08:43.246Z,2016.00
2022-09-17T10:09:43.253Z,2200.00
2022-09-17T10:10:43.233Z,1888.00
2022-09-17T10:11:43.225Z,2164.00
2022-09-17T10:12:43.235Z,1340.00
2022-09-17T10:13:43.201Z,2376.00
2022-09-17T10:14:43.188Z,2272.00
2022-09-17T10:15:43.282Z,2236.00
2022-09-17T10:16:43.165Z,2376.00
2022-09-17T10:17:43.181Z,2728.00
2022-09-17T10:18:43.141Z,2704.00
2022-09-17T10:19:43.140Z,1940.00
2022-09-17T10:20:43.113Z,1804.00
2022-09-17T10:21:43.117Z,1960.00
2022-09-17T10:22:43.133Z,2940.00
2022-09-17T10:23:43.093Z,1996.00
2022-09-17T10:24:43.107Z,2696.00
2022-09-17T10:25:43.077Z,2968.00
2022-09-17T10:26:43.061Z,2812.00
2022-09-17T10:27:43.069Z,2704.00
2022-09-17T10:28:43.046Z,1956.00
2022-09-17T10:29:43.027Z,2212.00
2022-09-17T10:30:43.007Z,1976.00
2022-09-17T10:31:43.095Z,1680.00
2022-09-17T10:32:43.039Z,1968.00
2022-09-17T10:33:42.973Z,2580.00
2022-09-17T10:34:42.966Z,1596.00
2022-09-17T10:35:42.961Z,2592.00
2022-09-17T10:36:42.937Z,1904.00
2022-09-17T10:37:42.974Z,1784.00
2022-09-17T10:38:42.929Z,1708.00
2022-09-17T10:39:42.950Z,1600.00
2022-09-17T10:40:42.926Z,1676.00
2022-09-17T10:41:42.898Z,1736.00
2022-09-17T10:42:42.866Z,1736.00
2022-09-17T10:43:42.905Z,1740.00
2022-09-17T10:44:42.853Z,1720.00
2022-09-17T10:45:42.871Z,1756.00
2022-09-17T10:46:42.851Z,1812.00
2022-09-17T10:47:42.841Z,2356.00
2022-09-17T10:48:42.818Z,2204.00
2022-09-17T10:49:42.810Z,2180.00
2022-09-17T10:50:42.790Z,2176.00
2022-09-17T10:51:42.793Z,2220.00
2022-09-17T10:52:42.758Z,2320.00
2022-09-17T10:53:42.781Z,2404.00
2022-09-17T10:54:42.786Z,1104.00
2022-09-17T10:55:42.732Z,1072.00
2022-09-17T10:56:42.722Z,1036.00
2022-09-17T10:57:42.707Z,1004.00
2022-09-17T10:58:42.701Z,1172.00
2022-09-17T10:59:42.691Z,1528.00
2022-09-17T11:00:42.669Z,1848.00
2022-09-17T11:01:42.811Z,1920.00
2022-09-17T11:02:42.668Z,2284.00
2022-09-17T11:03:42.637Z,2780.00
2022-09-17T11:04:42.638Z,1352.00
2022-09-17T11:05:42.642Z,1268.00
2022-09-17T11:06:42.609Z,1528.00
2022-09-17T11:07:42.593Z,2120.00
2022-09-17T11:08:42.602Z,1764.00
2022-09-17T11:09:42.559Z,2100.00
2022-09-17T11:10:42.567Z,2080.00
2022-09-17T11:11:42.542Z,2088.00
2022-09-17T11:12:42.558Z,2092.00
2022-09-17T11:13:42.530Z,2108.00
2022-09-17T11:14:42.762Z,2108.00
2022-09-17T11:15:42.578Z,2144.00
2022-09-17T11:16:42.573Z,2152.00
2022-09-17T11:17:42.566Z,2180.00
2022-09-17T11:18:42.609Z,2208.00
2022-09-17T11:19:42.628Z,2248.00
2022-09-17T11:20:42.582Z,2328.00
2022-09-17T11:21:42.672Z,2380.00
2022-09-17T11:22:42.658Z,2232.00
2022-09-17T11:23:42.706Z,2576.00
2022-09-17T11:24:42.446Z,2616.00
2022-09-17T11:25:42.374Z,2716.00
2022-09-17T11:26:42.430Z,2856.00
2022-09-17T11:27:42.374Z,2936.00
2022-09-17T11:28:42.371Z,3212.00
2022-09-17T11:29:42.363Z,2156.00
2022-09-17T11:30:42.332Z,2308.00
2022-09-17T11:31:42.410Z,3076.00
2022-09-17T11:32:42.322Z,3372.00
2022-09-17T11:33:42.294Z,2872.00
2022-09-17T11:34:42.343Z,2928.00
2022-09-17T11:35:42.262Z,3808.00
2022-09-17T11:36:42.286Z,2596.00
2022-09-17T11:37:42.262Z,3156.00
2022-09-17T11:38:42.247Z,3228.00
2022-09-17T11:39:42.254Z,3796.00
2022-09-17T11:40:42.235Z,2364.00
2022-09-17T11:41:42.267Z,1700.00
2022-09-17T11:42:42.230Z,1420.00
2022-09-17T11:43:42.178Z,1180.00
2022-09-17T11:44:42.211Z,1216.00
2022-09-17T11:45:42.188Z,1160.00
2022-09-17T11:46:42.191Z,1144.00
2022-09-17T11:47:42.136Z,1152.00
2022-09-17T11:48:42.139Z,1140.00
2022-09-17T11:49:42.122Z,2632.00
2022-09-17T11:50:42.135Z,1228.00
2022-09-17T11:51:42.094Z,1172.00
2022-09-17T11:52:42.096Z,1020.00
2022-09-17T11:53:42.066Z,1152.00
2022-09-17T11:54:42.076Z,1144.00
2022-09-17T11:55:42.059Z,1212.00
2022-09-17T11:56:42.058Z,940.00
2022-09-17T11:57:42.035Z,832.00
2022-09-17T11:58:42.028Z,804.00
2022-09-17T11:59:42.027Z,840.00
2022-09-17T12:00:42.011Z,892.00
2022-09-17T12:01:42.649Z,1012.00
2022-09-17T12:02:42.040Z,1076.00
2022-09-17T12:03:41.955Z,1068.00
2022-09-17T12:04:42.024Z,1088.00
2022-09-17T12:05:41.954Z,1256.00
2022-09-17T12:06:41.946Z,1380.00
2022-09-17T12:07:41.927Z,2784.00
2022-09-17T12:08:41.908Z,1736.00
2022-09-17T12:09:41.896Z,3304.00
2022-09-17T12:10:41.911Z,3440.00
2022-09-17T12:11:41.879Z,2820.00
2022-09-17T12:13:03.591Z,2944.00
2022-09-17T12:13:41.859Z,2160.00
2022-09-17T12:14:41.855Z,3276.00
2022-09-17T12:15:41.931Z,3304.00
2022-09-17T12:16:41.863Z,3176.00
2022-09-17T12:17:41.809Z,3088.00
2022-09-17T12:18:41.852Z,3140.00
2022-09-17T12:19:41.792Z,3208.00
2022-09-17T12:20:41.779Z,3512.00
2022-09-17T12:21:41.850Z,3364.00
2022-09-17T12:22:41.816Z,1988.00
2022-09-17T12:23:41.856Z,3084.00
2022-09-17T12:24:41.807Z,3132.00
2022-09-17T12:25:41.815Z,1852.00
2022-09-17T12:26:41.831Z,1600.00
2022-09-17T12:27:41.852Z,2388.00
2022-09-17T12:28:41.951Z,2252.00
2022-09-17T12:29:41.903Z,1696.00
2022-09-17T12:30:41.892Z,1788.00
2022-09-17T12:31:41.964Z,2412.00
2022-09-17T12:32:41.903Z,2968.00
2022-09-17T12:33:42.079Z,2896.00
2022-09-17T12:34:41.920Z,2740.00
2022-09-17T12:36:02.935Z,1752.00
2022-09-17T12:36:42.599Z,2624.00
2022-09-17T12:37:41.899Z,2700.00
2022-09-17T12:38:41.844Z,2872.00
2022-09-17T12:39:41.884Z,2256.00
2022-09-17T12:40:41.924Z,3068.00
2022-09-17T12:41:41.539Z,3180.00